createdAt,value
2019-03-06T00:01:55.029Z,100305.77
2019-03-06T00:04:22.207Z,100301.30
2019-03-06T00:06:49.440Z,100302.26
2019-03-06T00:09:17.263Z,100298.81
2019-03-06T00:11:44.465Z,100291.44
2019-03-06T00:14:11.669Z,100285.31
2019-03-06T00:16:38.891Z,100292.52
2019-03-06T00:19:06.172Z,100283.45
2019-03-06T00:21:33.392Z,100288.59
2019-03-06T00:24:00.625Z,100283.73
2019-03-06T00:26:27.921Z,100282.13
2019-03-06T00:28:55.111Z,100272.95
2019-03-06T00:31:22.432Z,100274.91
2019-03-06T00:33:49.792Z,100274.52
2019-03-06T00:36:20.080Z,100269.34
2019-03-06T00:38:47.447Z,100273.43
2019-03-06T00:41:35.261Z,100273.55
2019-03-06T00:44:02.447Z,100278.66
2019-03-06T00:46:29.712Z,100274.52
2019-03-06T00:48:56.992Z,100281.33
2019-03-06T00:51:24.188Z,100271.59
2019-03-06T00:53:51.543Z,100275.79
2019-03-06T00:56:18.807Z,100278.22
2019-03-06T00:58:45.974Z,100272.86
2019-03-06T01:01:13.952Z,100270.87
2019-03-06T01:03:41.181Z,100265.55
2019-03-06T01:06:08.368Z,100267.49
2019-03-06T01:08:35.840Z,100256.34
2019-03-06T01:11:03.334Z,100258.92
2019-03-06T01:13:30.488Z,100252.32
2019-03-06T01:15:57.721Z,100242.06
2019-03-06T01:18:25.284Z,100250.64
2019-03-06T01:20:52.365Z,100242.11
2019-03-06T01:23:19.557Z,100253.89
2019-03-06T01:25:46.771Z,100247.13
2019-03-06T01:28:13.942Z,100245.03
2019-03-06T01:30:41.147Z,100239.89
2019-03-06T01:33:14.427Z,100243.36
2019-03-06T01:35:47.993Z,100235.55
2019-03-06T01:38:34.856Z,100230.53
2019-03-06T01:41:14.186Z,100229.31
2019-03-06T01:43:51.466Z,100227.59
2019-03-06T01:46:19.064Z,100233.28
2019-03-06T01:48:46.636Z,100229.84
2019-03-06T01:51:14.002Z,100223.20
2019-03-06T01:53:41.199Z,100225.69
2019-03-06T01:56:08.485Z,100222.97
2019-03-06T01:58:36.093Z,100225.00
2019-03-06T02:01:03.266Z,100218.58
2019-03-06T02:03:30.408Z,100212.12
2019-03-06T02:05:57.504Z,100215.83
2019-03-06T02:08:24.933Z,100208.75
2019-03-06T02:10:52.114Z,100211.57
2019-03-06T02:13:22.009Z,100201.77
2019-03-06T02:15:49.185Z,100204.30
2019-03-06T02:18:16.274Z,100201.38
2019-03-06T02:20:43.392Z,100199.22
2019-03-06T02:23:10.863Z,100194.92
2019-03-06T02:25:38.219Z,100190.28
2019-03-06T02:28:05.740Z,100183.10
2019-03-06T02:30:33.211Z,100171.05
2019-03-06T02:33:00.657Z,100164.47
2019-03-06T02:35:28.153Z,100155.69
2019-03-06T02:37:55.610Z,100162.42
2019-03-06T02:40:22.812Z,100162.33
2019-03-06T02:42:50.035Z,100163.22
2019-03-06T02:45:17.284Z,100160.54
2019-03-06T02:47:44.362Z,100161.06
2019-03-06T02:50:12.778Z,100160.83
2019-03-06T02:52:40.135Z,100154.22
2019-03-06T02:55:07.807Z,100160.67
2019-03-06T02:57:35.129Z,100165.55
2019-03-06T03:00:23.707Z,100158.15
2019-03-06T03:02:59.183Z,100149.59
2019-03-06T03:05:37.162Z,100139.50
2019-03-06T03:08:04.456Z,100147.83
2019-03-06T03:10:31.797Z,100149.50
2019-03-06T03:12:59.396Z,100158.86
2019-03-06T03:15:26.634Z,100142.69
2019-03-06T03:17:53.818Z,100129.84
2019-03-06T03:20:21.023Z,100132.85
2019-03-06T03:22:48.202Z,100140.35
2019-03-06T03:25:15.438Z,100129.69
2019-03-06T03:27:43.014Z,100129.91
2019-03-06T03:30:11.902Z,100130.11
2019-03-06T03:32:39.116Z,100128.52
2019-03-06T03:35:06.380Z,100120.09
2019-03-06T03:37:33.685Z,100118.42
2019-03-06T03:40:00.848Z,100116.83
2019-03-06T03:42:28.552Z,100121.94
2019-03-06T03:44:56.133Z,100118.30
2019-03-06T03:47:23.323Z,100117.84
2019-03-06T03:49:50.487Z,100114.14
2019-03-06T03:52:17.712Z,100109.59
2019-03-06T03:54:44.860Z,100106.28
2019-03-06T03:57:12.414Z,100105.59
2019-03-06T03:59:39.749Z,100106.69
2019-03-06T04:02:07.211Z,100107.50
2019-03-06T04:04:34.384Z,100109.86
2019-03-06T04:07:01.890Z,100103.69
2019-03-06T04:09:29.092Z,100097.01
2019-03-06T04:11:56.551Z,100097.37
2019-03-06T04:14:23.806Z,100091.50
2019-03-06T04:16:51.872Z,100089.47
2019-03-06T04:19:19.100Z,100093.39
2019-03-06T04:21:46.406Z,100096.27
2019-03-06T04:24:13.689Z,100091.63
2019-03-06T04:26:41.218Z,100085.17
2019-03-06T04:29:08.554Z,100085.70
2019-03-06T04:31:35.800Z,100081.88
2019-03-06T04:34:03.014Z,100082.06
2019-03-06T04:36:30.663Z,100087.06
2019-03-06T04:38:58.137Z,100083.59
2019-03-06T04:41:26.043Z,100080.92
2019-03-06T04:43:53.279Z,100074.08
2019-03-06T04:46:20.460Z,100073.77
2019-03-06T04:48:47.537Z,100065.52
2019-03-06T04:51:17.146Z,100074.23
2019-03-06T04:53:44.290Z,100057.50
2019-03-06T04:56:11.585Z,100062.78
2019-03-06T04:58:39.237Z,100049.75
2019-03-06T05:01:06.432Z,100041.77
2019-03-06T05:03:33.569Z,100046.05
2019-03-06T05:06:00.668Z,100037.73
2019-03-06T05:08:28.792Z,100024.77
2019-03-06T05:10:56.069Z,100022.19
2019-03-06T05:13:25.307Z,100026.03
2019-03-06T05:15:52.690Z,100024.00
2019-03-06T05:18:35.560Z,100026.36
2019-03-06T05:21:02.721Z,100016.67
2019-03-06T05:23:29.902Z,100019.23
2019-03-06T05:25:57.112Z,100024.00
2019-03-06T05:28:24.377Z,100019.45
2019-03-06T05:30:51.549Z,100019.99
2019-03-06T05:33:18.690Z,100031.00
2019-03-06T05:36:14.650Z,100034.20
2019-03-06T05:38:48.927Z,100039.42
2019-03-06T05:41:16.721Z,100026.26
2019-03-06T05:43:44.029Z,100016.57
2019-03-06T05:46:11.216Z,100002.70
2019-03-06T05:48:38.384Z,99995.30
2019-03-06T05:51:06.747Z,99989.20
2019-03-06T05:53:34.021Z,99979.24
2019-03-06T05:56:01.293Z,99975.48
2019-03-06T05:58:28.715Z,99975.58
2019-03-06T06:00:55.918Z,99974.33
2019-03-06T06:03:23.498Z,99982.62
2019-03-06T06:05:50.871Z,99981.00
2019-03-06T06:08:18.365Z,99976.59
2019-03-06T06:10:45.566Z,99970.73
2019-03-06T06:13:13.149Z,99977.08
2019-03-06T06:15:40.435Z,99959.80
2019-03-06T06:18:07.499Z,99957.63
2019-03-06T06:20:34.624Z,99955.52
2019-03-06T06:23:20.057Z,99958.39
2019-03-06T06:25:47.647Z,99953.72
2019-03-06T06:28:14.915Z,99947.69
2019-03-06T06:30:42.839Z,99946.67
2019-03-06T06:33:10.221Z,99947.13
2019-03-06T06:35:37.303Z,99947.03
2019-03-06T06:38:04.511Z,99933.06
2019-03-06T06:40:31.694Z,99933.01
2019-03-06T06:42:58.901Z,99935.27
2019-03-06T06:45:26.260Z,99932.39
2019-03-06T06:48:08.359Z,99935.09
2019-03-06T06:50:36.525Z,99931.52
2019-03-06T06:53:40.332Z,99917.42
2019-03-06T06:56:37.489Z,99924.12
2019-03-06T06:59:21.786Z,99918.03
2019-03-06T07:02:52.744Z,99915.76
2019-03-06T07:05:25.005Z,99914.38
2019-03-06T07:08:10.463Z,99915.35
2019-03-06T07:10:57.516Z,99908.98
2019-03-06T07:13:30.717Z,99907.85
2019-03-06T07:16:16.503Z,99900.88
2019-03-06T07:19:15.246Z,99895.95
2019-03-06T07:21:50.104Z,99890.97
2019-03-06T07:24:41.038Z,99887.81
2019-03-06T07:27:33.662Z,99886.71
2019-03-06T07:30:17.350Z,99889.70
2019-03-06T07:33:07.149Z,99884.06
2019-03-06T07:36:14.294Z,99891.77
2019-03-06T07:38:41.990Z,99881.67
2019-03-06T07:41:31.797Z,99879.39
2019-03-06T07:44:37.061Z,99883.24
2019-03-06T07:47:17.354Z,99883.09
2019-03-06T07:49:53.804Z,99890.67
2019-03-06T07:52:43.619Z,99886.66
2019-03-06T07:55:29.450Z,99887.48
2019-03-06T07:58:33.256Z,99886.04
2019-03-06T08:01:00.589Z,99878.34
2019-03-06T08:03:40.923Z,99873.06
2019-03-06T08:06:08.033Z,99857.59
2019-03-06T08:08:35.282Z,99848.49
2019-03-06T08:11:04.168Z,99851.23
2019-03-06T08:13:54.105Z,99860.74
2019-03-06T08:16:26.529Z,99850.77
2019-03-06T08:19:03.847Z,99843.67
2019-03-06T08:21:46.463Z,99847.93
2019-03-06T08:24:25.366Z,99844.61
2019-03-06T08:26:52.560Z,99849.36
2019-03-06T08:29:19.749Z,99839.75
2019-03-06T08:31:53.157Z,99843.72
2019-03-06T08:34:20.440Z,99838.81
2019-03-06T08:36:47.985Z,99840.02
2019-03-06T08:39:22.231Z,99838.04
2019-03-06T08:41:49.383Z,99836.29
2019-03-06T08:44:16.570Z,99829.71
2019-03-06T08:46:53.264Z,99829.53
2019-03-06T08:49:43.392Z,99829.59
2019-03-06T08:52:39.294Z,99825.28
2019-03-06T08:55:18.805Z,99828.75
2019-03-06T08:58:17.999Z,99821.03
2019-03-06T09:01:01.350Z,99808.63
2019-03-06T09:03:49.778Z,99810.65
2019-03-06T09:09:50.719Z,99793.48
2019-03-06T09:12:37.517Z,99779.77
2019-03-06T09:15:36.975Z,99774.30
2019-03-06T09:18:23.646Z,99777.65
2019-03-06T09:21:32.058Z,99769.20
2019-03-06T09:27:20.360Z,99771.41
2019-03-06T09:33:58.489Z,99755.98
2019-03-06T09:36:57.741Z,99764.13
2019-03-06T09:39:44.543Z,99744.92
2019-03-06T09:42:31.340Z,99734.63
2019-03-06T09:45:18.124Z,99724.73
2019-03-06T09:47:50.816Z,99720.00
2019-03-06T09:50:26.395Z,99706.74
2019-03-06T09:53:13.166Z,99699.62
2019-03-06T09:56:00.063Z,99693.28
2019-03-06T09:58:46.847Z,99690.30
2019-03-06T10:01:45.397Z,99685.11
2019-03-06T10:04:20.712Z,99683.06
2019-03-06T10:07:07.604Z,99671.33
2019-03-06T10:10:15.569Z,99668.47
2019-03-06T10:13:03.505Z,99667.39
2019-03-06T10:16:08.280Z,99659.10
2019-03-06T10:21:43.618Z,99657.19
2019-03-06T10:24:10.799Z,99651.96
2019-03-06T10:26:38.016Z,99650.23
2019-03-06T10:29:46.077Z,99658.14
2019-03-06T10:32:13.621Z,99654.10
2019-03-06T10:35:20.098Z,99643.98
2019-03-06T10:37:47.975Z,99643.73
2019-03-06T10:40:56.481Z,99643.61
2019-03-06T10:46:58.027Z,99632.97
2019-03-06T10:49:32.873Z,99625.32
2019-03-06T10:55:06.172Z,99624.17
2019-03-06T11:01:15.396Z,99615.24
2019-03-06T11:04:02.139Z,99604.36
2019-03-06T11:09:49.392Z,99593.86
2019-03-06T11:12:16.592Z,99585.40
2019-03-06T11:15:24.648Z,99572.08
2019-03-06T11:17:52.276Z,99580.66
2019-03-06T11:23:42.646Z,99567.97
2019-03-06T11:39:01.493Z,99530.20
2019-03-06T11:45:36.005Z,99522.92
2019-03-06T11:54:27.196Z,99478.31
2019-03-06T11:56:54.367Z,99477.72
2019-03-06T11:59:22.302Z,99468.80
2019-03-06T12:02:30.326Z,99466.23
2019-03-06T12:08:45.825Z,99446.25
2019-03-06T12:14:34.803Z,99450.77
2019-03-06T12:17:02.013Z,99439.23
2019-03-06T12:19:29.188Z,99438.72
2019-03-06T12:22:37.255Z,99429.80
2019-03-06T12:28:25.451Z,99420.55
2019-03-06T12:36:55.995Z,99406.27
2019-03-06T12:39:23.230Z,99392.98
2019-03-06T12:53:34.556Z,99363.14
2019-03-06T12:56:23.415Z,99379.14
2019-03-06T12:58:50.651Z,99368.77
2019-03-06T13:01:17.915Z,99361.13
2019-03-06T13:03:47.283Z,99347.95
2019-03-06T13:06:33.953Z,99334.74
2019-03-06T13:11:50.433Z,99340.73
2019-03-06T13:17:37.600Z,99322.41
2019-03-06T13:20:53.540Z,99322.73
2019-03-06T13:25:58.981Z,99307.78
2019-03-06T13:28:26.178Z,99313.38
2019-03-06T13:31:34.207Z,99312.43
2019-03-06T13:37:35.544Z,99303.14
2019-03-06T13:40:18.398Z,99294.83
2019-03-06T13:42:44.264Z,99288.95
2019-03-06T13:48:31.952Z,99277.36
2019-03-06T13:54:12.404Z,99267.53
2019-03-06T14:00:02.650Z,99263.48
2019-03-06T14:02:41.596Z,99254.02
2019-03-06T14:05:22.327Z,99254.16
2019-03-06T14:11:22.751Z,99248.56
2019-03-06T14:13:49.967Z,99251.31
2019-03-06T14:17:05.923Z,99240.53
2019-03-06T14:19:33.108Z,99240.84
2019-03-06T14:25:54.172Z,99234.08
2019-03-06T14:28:21.371Z,99230.58
2019-03-06T14:33:27.924Z,99232.02
2019-03-06T14:35:54.981Z,99225.63
2019-03-06T14:38:23.957Z,99218.84
2019-03-06T14:40:57.573Z,99217.41
2019-03-06T14:43:24.990Z,99210.81
2019-03-06T14:45:52.502Z,99216.08
2019-03-06T14:48:20.122Z,99203.00
2019-03-06T14:50:47.216Z,99202.09
2019-03-06T14:53:14.522Z,99188.94
2019-03-06T14:55:42.046Z,99183.19
2019-03-06T14:58:09.284Z,99190.77
2019-03-06T15:00:36.891Z,99190.83
2019-03-06T15:03:04.097Z,99179.91
2019-03-06T15:05:31.545Z,99186.52
2019-03-06T15:07:58.950Z,99179.00
2019-03-06T15:10:26.211Z,99171.84
2019-03-06T15:12:53.584Z,99173.42
2019-03-06T15:15:20.762Z,99166.64
2019-03-06T15:17:48.382Z,99161.43
2019-03-06T15:20:16.885Z,99160.33
2019-03-06T15:22:44.382Z,99150.70
2019-03-06T15:25:14.221Z,99151.43
2019-03-06T15:27:41.431Z,99150.31
2019-03-06T15:30:09.870Z,99142.84
2019-03-06T15:32:37.085Z,99148.39
2019-03-06T15:35:04.417Z,99142.98
2019-03-06T15:37:31.783Z,99146.09
2019-03-06T15:39:59.081Z,99145.47
2019-03-06T15:42:26.613Z,99142.13
2019-03-06T15:44:53.883Z,99142.27
2019-03-06T15:47:21.341Z,99144.74
2019-03-06T15:49:48.518Z,99145.23
2019-03-06T15:52:15.724Z,99140.31
2019-03-06T15:54:43.231Z,99135.39
2019-03-06T15:57:10.551Z,99137.61
2019-03-06T15:59:38.377Z,99135.63
2019-03-06T16:02:05.623Z,99133.47
2019-03-06T16:04:33.835Z,99129.84
2019-03-06T16:07:01.064Z,99120.09
2019-03-06T16:09:28.359Z,99123.06
2019-03-06T16:11:55.845Z,99123.77
2019-03-06T16:14:23.473Z,99110.34
2019-03-06T16:16:51.320Z,99119.86
2019-03-06T16:19:18.606Z,99118.89
2019-03-06T16:21:45.866Z,99121.50
2019-03-06T16:24:13.266Z,99113.88
2019-03-06T16:26:40.428Z,99116.98
2019-03-06T16:29:07.733Z,99111.93
2019-03-06T16:31:35.229Z,99111.30
2019-03-06T16:34:02.542Z,99114.30
2019-03-06T16:36:29.736Z,99117.77
2019-03-06T16:38:56.951Z,99112.41
2019-03-06T16:41:24.224Z,99118.17
2019-03-06T16:43:51.453Z,99113.84
2019-03-06T16:46:18.859Z,99108.84
2019-03-06T16:48:46.027Z,99115.03
2019-03-06T16:51:13.637Z,99119.98
2019-03-06T16:53:41.267Z,99117.62
2019-03-06T16:56:08.836Z,99117.13
2019-03-06T16:58:36.068Z,99124.44
2019-03-06T17:01:04.184Z,99117.53
2019-03-06T17:03:32.297Z,99127.69
2019-03-06T17:05:59.512Z,99131.23
2019-03-06T17:08:26.913Z,99128.61
2019-03-06T17:10:54.146Z,99121.28
2019-03-06T17:13:21.368Z,99125.58
2019-03-06T17:15:48.686Z,99131.45
2019-03-06T17:18:16.082Z,99132.98
2019-03-06T17:20:43.172Z,99132.47
2019-03-06T17:23:10.498Z,99128.14
2019-03-06T17:25:37.989Z,99130.05
2019-03-06T17:28:05.984Z,99137.43
2019-03-06T17:30:33.630Z,99137.54
2019-03-06T17:33:02.598Z,99137.33
2019-03-06T17:35:30.551Z,99140.69
2019-03-06T17:37:58.148Z,99138.09
2019-03-06T17:40:26.136Z,99137.58
2019-03-06T17:42:53.471Z,99145.58
2019-03-06T17:45:20.784Z,99141.45
2019-03-06T17:47:47.965Z,99146.92
2019-03-06T17:50:16.019Z,99158.69
2019-03-06T17:52:43.240Z,99153.59
2019-03-06T17:55:10.874Z,99158.92
2019-03-06T17:57:38.057Z,99167.41
2019-03-06T18:00:06.253Z,99164.21
2019-03-06T18:02:33.604Z,99157.66
2019-03-06T18:05:00.796Z,99159.73
2019-03-06T18:07:28.445Z,99159.42
2019-03-06T18:09:55.714Z,99156.17
2019-03-06T18:12:22.951Z,99151.94
2019-03-06T18:14:50.208Z,99146.96
2019-03-06T18:17:17.304Z,99159.84
2019-03-06T18:19:44.504Z,99145.59
2019-03-06T18:22:12.126Z,99142.00
2019-03-06T18:24:39.752Z,99132.85
2019-03-06T18:27:07.064Z,99131.25
2019-03-06T18:29:34.303Z,99129.15
2019-03-06T18:32:01.494Z,99117.63
2019-03-06T18:34:28.783Z,99117.13
2019-03-06T18:36:56.171Z,99111.20
2019-03-06T18:39:23.473Z,99109.42
2019-03-06T18:41:51.042Z,99099.16
2019-03-06T18:44:18.503Z,99095.52
2019-03-06T18:46:46.646Z,99081.52
2019-03-06T18:49:14.040Z,99069.78
2019-03-06T18:51:41.604Z,99066.33
2019-03-06T18:54:09.094Z,99052.82
2019-03-06T18:56:36.309Z,99050.00
2019-03-06T18:59:04.049Z,99043.73
2019-03-06T19:01:31.430Z,99039.30
2019-03-06T19:03:58.857Z,99038.64
2019-03-06T19:06:26.587Z,99033.20
2019-03-06T19:08:53.942Z,99039.78
2019-03-06T19:11:21.261Z,99043.77
2019-03-06T19:13:48.742Z,99033.53
2019-03-06T19:16:16.325Z,99027.24
2019-03-06T19:18:45.582Z,99017.68
2019-03-06T19:21:13.980Z,99016.36
2019-03-06T19:23:41.427Z,99002.67
2019-03-06T19:26:12.076Z,99009.09
2019-03-06T19:28:39.836Z,98998.89
2019-03-06T19:31:07.342Z,98995.91
2019-03-06T19:33:34.975Z,98989.00
2019-03-06T19:36:02.434Z,98986.34
2019-03-06T19:38:30.334Z,98986.36
2019-03-06T19:40:57.716Z,98980.42
2019-03-06T19:43:25.203Z,98987.02
2019-03-06T19:45:52.684Z,98977.13
2019-03-06T19:48:19.920Z,98974.30
2019-03-06T19:50:47.268Z,98973.16
2019-03-06T19:53:14.848Z,98971.34
2019-03-06T19:55:42.095Z,98962.27
2019-03-06T19:58:09.468Z,98973.16
2019-03-06T20:00:36.715Z,98977.13
2019-03-06T20:03:06.520Z,98969.16
2019-03-06T20:05:35.957Z,98961.92
2019-03-06T20:08:06.899Z,98958.95
2019-03-06T20:10:34.148Z,98966.70
2019-03-06T20:13:01.893Z,98965.40
2019-03-06T20:15:29.208Z,98958.64
2019-03-06T20:17:56.472Z,98958.46
2019-03-06T20:20:23.717Z,98955.82
2019-03-06T20:22:51.309Z,98949.89
2019-03-06T20:25:19.153Z,98948.38
2019-03-06T20:27:46.620Z,98958.14
2019-03-06T20:30:15.650Z,98952.05
2019-03-06T20:32:42.918Z,98953.36
2019-03-06T20:35:10.666Z,98952.05
2019-03-06T20:37:38.258Z,98951.04
2019-03-06T20:40:05.828Z,98949.23
2019-03-06T20:42:33.610Z,98947.73
2019-03-06T20:45:01.020Z,98931.08
2019-03-06T20:47:29.515Z,98931.83
2019-03-06T20:50:44.344Z,98934.13
2019-03-06T20:53:11.598Z,98923.40
2019-03-06T20:59:21.838Z,98916.47
2019-03-06T21:01:56.385Z,98907.23
2019-03-06T21:04:23.700Z,98904.42
2019-03-06T21:06:50.897Z,98892.47
2019-03-06T21:09:18.114Z,98887.51
2019-03-06T21:14:37.857Z,98884.75
2019-03-06T21:17:53.289Z,98886.74
2019-03-06T21:20:20.503Z,98885.06
2019-03-06T21:23:28.561Z,98882.90
2019-03-06T21:28:33.704Z,98875.45
2019-03-06T21:31:00.927Z,98871.98
2019-03-06T21:33:28.115Z,98870.50
2019-03-06T21:36:07.775Z,98871.49
2019-03-06T21:42:08.609Z,98855.75
2019-03-06T21:44:35.831Z,98849.47
2019-03-06T21:47:34.951Z,98848.19
2019-03-06T21:50:02.170Z,98842.59
2019-03-06T21:52:31.181Z,98842.32
2019-03-06T21:54:59.560Z,98847.97
2019-03-06T21:57:37.598Z,98854.73
2019-03-06T22:03:27.471Z,98856.61
2019-03-06T22:05:54.565Z,98855.80
2019-03-06T22:08:41.259Z,98850.71
2019-03-06T22:11:27.899Z,98849.55
2019-03-06T22:13:55.130Z,98845.27
2019-03-06T22:21:54.879Z,98869.25
2019-03-06T22:24:22.118Z,98868.38
2019-03-06T22:27:30.125Z,98869.87
2019-03-06T22:32:59.687Z,98868.20
2019-03-06T22:36:28.539Z,98866.25
2019-03-06T22:38:55.776Z,98855.39
2019-03-06T22:41:44.639Z,98850.80
2019-03-06T22:44:11.865Z,98845.19
2019-03-06T22:50:19.134Z,98841.27
2019-03-06T22:59:21.184Z,98822.31
2019-03-06T23:02:29.224Z,98827.74
2019-03-06T23:04:56.441Z,98827.77
2019-03-06T23:07:23.617Z,98820.00
2019-03-06T23:09:50.813Z,98814.23
2019-03-06T23:12:18.015Z,98818.85
2019-03-06T23:17:22.865Z,98825.13
2019-03-06T23:19:49.974Z,98831.86
2019-03-06T23:22:17.209Z,98826.59
2019-03-06T23:24:52.337Z,98815.73
2019-03-06T23:27:19.533Z,98810.30
2019-03-06T23:29:46.701Z,98807.01
2019-03-06T23:32:13.927Z,98801.08
2019-03-06T23:34:41.450Z,98807.97
2019-03-06T23:37:08.661Z,98805.17
2019-03-06T23:40:16.998Z,98798.77
2019-03-06T23:45:58.414Z,98793.80
2019-03-06T23:48:25.482Z,98794.47
2019-03-06T23:50:52.576Z,98789.03
2019-03-06T23:53:47.506Z,98782.78
